sensor_id;sensor_type;location;lat;lon;timestamp;pressure;altitude;pressure_sealevel;temperature;humidity
36284;BME280;56085;48.910;9.478;2023-06-14T00:02:15;97625.66;;;31.36;16.54
36284;BME280;56085;48.910;9.478;2023-06-14T00:04:40;97620.47;;;31.18;16.60
36284;BME280;56085;48.910;9.478;2023-06-14T00:07:06;97644.59;;;31.00;16.64
36284;BME280;56085;48.910;9.478;2023-06-14T00:09:35;97637.84;;;31.08;16.70
36284;BME280;56085;48.910;9.478;2023-06-14T00:12:00;97627.47;;;31.00;16.74
36284;BME280;56085;48.910;9.478;2023-06-14T00:14:26;97632.13;;;31.03;16.67
36284;BME280;56085;48.910;9.478;2023-06-14T00:16:51;97632.44;;;31.10;16.80
36284;BME280;56085;48.910;9.478;2023-06-14T00:19:18;97640.41;;;30.89;16.98
36284;BME280;56085;48.910;9.478;2023-06-14T00:21:44;97624.06;;;30.95;17.08
36284;BME280;56085;48.910;9.478;2023-06-14T00:24:10;97628.19;;;30.77;16.84
36284;BME280;56085;48.910;9.478;2023-06-14T00:26:35;97618.41;;;31.12;16.94
36284;BME280;56085;48.910;9.478;2023-06-14T00:29:01;97623.53;;;30.91;16.89
36284;BME280;56085;48.910;9.478;2023-06-14T00:31:26;97619.88;;;30.68;17.20
36284;BME280;56085;48.910;9.478;2023-06-14T00:33:52;97637.25;;;30.64;16.94
36284;BME280;56085;48.910;9.478;2023-06-14T00:36:17;97618.59;;;30.75;17.20
36284;BME280;56085;48.910;9.478;2023-06-14T00:38:42;97614.94;;;30.63;16.99
36284;BME280;56085;48.910;9.478;2023-06-14T00:41:08;97633.63;;;30.81;16.93
36284;BME280;56085;48.910;9.478;2023-06-14T00:43:33;97618.06;;;30.59;17.36
36284;BME280;56085;48.910;9.478;2023-06-14T00:46:00;97622.97;;;30.59;17.23
36284;BME280;56085;48.910;9.478;2023-06-14T00:48:25;97615.94;;;30.54;17.24
36284;BME280;56085;48.910;9.478;2023-06-14T00:50:51;97661.59;;;30.54;17.16
36284;BME280;56085;48.910;9.478;2023-06-14T00:53:18;97636.09;;;30.39;17.02
36284;BME280;56085;48.910;9.478;2023-06-14T00:55:44;97617.78;;;30.57;17.07
36284;BME280;56085;48.910;9.478;2023-06-14T00:58:10;97646.78;;;30.44;16.98
36284;BME280;56085;48.910;9.478;2023-06-14T01:00:36;97629.88;;;30.41;17.16
36284;BME280;56085;48.910;9.478;2023-06-14T01:03:01;97630.41;;;30.39;17.32
36284;BME280;56085;48.910;9.478;2023-06-14T01:05:27;97625.56;;;30.62;17.17
36284;BME280;56085;48.910;9.478;2023-06-14T01:08:18;97714.34;;;30.87;17.10
36284;BME280;56085;48.910;9.478;2023-06-14T01:11:05;97694.88;;;30.91;16.93
36284;BME280;56085;48.910;9.478;2023-06-14T01:13:35;97674.59;;;30.67;17.15
36284;BME280;56085;48.910;9.478;2023-06-14T01:16:02;97634.91;;;30.63;17.20
36284;BME280;56085;48.910;9.478;2023-06-14T01:18:28;97658.19;;;30.44;17.13
36284;BME280;56085;48.910;9.478;2023-06-14T01:20:54;97630.91;;;30.38;16.99
36284;BME280;56085;48.910;9.478;2023-06-14T01:23:21;97667.38;;;30.11;17.27
36284;BME280;56085;48.910;9.478;2023-06-14T01:25:47;97654.59;;;30.50;17.13
36284;BME280;56085;48.910;9.478;2023-06-14T01:28:18;97634.69;;;30.12;17.20
36284;BME280;56085;48.910;9.478;2023-06-14T01:30:46;97692.31;;;30.27;17.34
36284;BME280;56085;48.910;9.478;2023-06-14T01:33:17;97665.00;;;30.04;17.05
36284;BME280;56085;48.910;9.478;2023-06-14T01:35:46;97653.69;;;30.26;17.10
36284;BME280;56085;48.910;9.478;2023-06-14T01:38:13;97673.25;;;30.02;17.31
36284;BME280;56085;48.910;9.478;2023-06-14T01:40:40;97687.31;;;30.11;17.37
36284;BME280;56085;48.910;9.478;2023-06-14T01:43:07;97639.34;;;30.04;17.44
36284;BME280;56085;48.910;9.478;2023-06-14T01:45:33;97651.59;;;30.21;17.20
36284;BME280;56085;48.910;9.478;2023-06-14T01:47:59;97655.81;;;29.88;17.05
36284;BME280;56085;48.910;9.478;2023-06-14T01:50:29;97712.53;;;30.29;17.10
36284;BME280;56085;48.910;9.478;2023-06-14T01:52:55;97618.63;;;30.09;17.16
36284;BME280;56085;48.910;9.478;2023-06-14T01:55:20;97631.19;;;29.85;17.26
36284;BME280;56085;48.910;9.478;2023-06-14T01:57:47;97626.19;;;29.74;17.43
36284;BME280;56085;48.910;9.478;2023-06-14T02:00:13;97638.03;;;30.05;17.28
36284;BME280;56085;48.910;9.478;2023-06-14T02:02:40;97628.97;;;30.06;17.22
36284;BME280;56085;48.910;9.478;2023-06-14T02:05:06;97614.19;;;30.02;17.22
36284;BME280;56085;48.910;9.478;2023-06-14T02:07:32;97624.50;;;29.94;17.07
36284;BME280;56085;48.910;9.478;2023-06-14T02:09:58;97632.38;;;30.16;17.17
36284;BME280;56085;48.910;9.478;2023-06-14T02:12:23;97620.66;;;29.97;17.13
36284;BME280;56085;48.910;9.478;2023-06-14T02:14:48;97625.19;;;29.77;17.21
36284;BME280;56085;48.910;9.478;2023-06-14T02:17:14;97629.63;;;29.84;17.32
36284;BME280;56085;48.910;9.478;2023-06-14T02:19:40;97620.59;;;29.91;17.49
36284;BME280;56085;48.910;9.478;2023-06-14T02:22:05;97618.47;;;29.81;17.19
36284;BME280;56085;48.910;9.478;2023-06-14T02:24:31;97619.97;;;29.70;17.49
36284;BME280;56085;48.910;9.478;2023-06-14T02:26:56;97626.53;;;29.82;17.39
36284;BME280;56085;48.910;9.478;2023-06-14T02:29:21;97626.34;;;29.59;17.37
36284;BME280;56085;48.910;9.478;2023-06-14T02:31:47;97635.56;;;29.81;17.51
36284;BME280;56085;48.910;9.478;2023-06-14T02:34:13;97632.72;;;29.43;17.64
36284;BME280;56085;48.910;9.478;2023-06-14T02:36:39;97617.13;;;29.33;17.69
36284;BME280;56085;48.910;9.478;2023-06-14T02:39:06;97619.69;;;29.31;17.49
36284;BME280;56085;48.910;9.478;2023-06-14T02:41:32;97635.28;;;29.41;17.50
36284;BME280;56085;48.910;9.478;2023-06-14T02:43:57;97613.09;;;28.87;17.69
36284;BME280;56085;48.910;9.478;2023-06-14T02:46:23;97639.28;;;28.97;17.43
36284;BME280;56085;48.910;9.478;2023-06-14T02:48:49;97635.97;;;29.04;17.54
36284;BME280;56085;48.910;9.478;2023-06-14T02:51:14;97641.34;;;28.96;17.77
36284;BME280;56085;48.910;9.478;2023-06-14T02:53:39;97653.00;;;28.98;17.77
36284;BME280;56085;48.910;9.478;2023-06-14T02:56:05;97654.25;;;28.65;17.80
36284;BME280;56085;48.910;9.478;2023-06-14T02:58:31;97630.16;;;28.87;17.68
36284;BME280;56085;48.910;9.478;2023-06-14T03:00:56;97656.66;;;28.72;17.66
36284;BME280;56085;48.910;9.478;2023-06-14T03:03:22;97644.66;;;28.89;17.78
36284;BME280;56085;48.910;9.478;2023-06-14T03:05:49;97636.06;;;28.83;18.06
36284;BME280;56085;48.910;9.478;2023-06-14T03:08:16;97625.34;;;28.99;18.17
36284;BME280;56085;48.910;9.478;2023-06-14T03:10:45;97647.22;;;29.19;18.07
36284;BME280;56085;48.910;9.478;2023-06-14T03:13:10;97622.69;;;29.21;18.21
36284;BME280;56085;48.910;9.478;2023-06-14T03:15:36;97628.44;;;29.27;18.29
36284;BME280;56085;48.910;9.478;2023-06-14T03:18:01;97638.19;;;29.20;18.02
36284;BME280;56085;48.910;9.478;2023-06-14T03:20:27;97642.13;;;28.97;18.21
36284;BME280;56085;48.910;9.478;2023-06-14T03:22:55;97644.03;;;28.59;17.84
36284;BME280;56085;48.910;9.478;2023-06-14T03:25:20;97658.28;;;29.11;18.09
36284;BME280;56085;48.910;9.478;2023-06-14T03:27:47;97640.25;;;29.46;18.02
36284;BME280;56085;48.910;9.478;2023-06-14T03:30:12;97648.63;;;29.29;18.14
36284;BME280;56085;48.910;9.478;2023-06-14T03:32:38;97650.78;;;29.08;18.00
36284;BME280;56085;48.910;9.478;2023-06-14T03:35:03;97678.03;;;29.20;18.28
36284;BME280;56085;48.910;9.478;2023-06-14T03:37:29;97652.56;;;28.59;18.14
36284;BME280;56085;48.910;9.478;2023-06-14T03:39:54;97673.13;;;28.48;18.01
36284;BME280;56085;48.910;9.478;2023-06-14T03:42:19;97659.38;;;28.87;18.22
36284;BME280;56085;48.910;9.478;2023-06-14T03:44:45;97663.16;;;29.31;18.20
36284;BME280;56085;48.910;9.478;2023-06-14T03:47:10;97640.97;;;29.09;18.30
36284;BME280;56085;48.910;9.478;2023-06-14T03:49:35;97662.41;;;29.04;18.29
36284;BME280;56085;48.910;9.478;2023-06-14T03:52:02;97659.44;;;28.93;18.13
36284;BME280;56085;48.910;9.478;2023-06-14T03:54:27;97665.81;;;29.14;18.33
36284;BME280;56085;48.910;9.478;2023-06-14T03:56:53;97661.66;;;29.36;18.43
36284;BME280;56085;48.910;9.478;2023-06-14T03:59:19;97655.94;;;29.36;18.05
36284;BME280;56085;48.910;9.478;2023-06-14T04:01:45;97664.44;;;29.62;18.38
36284;BME280;56085;48.910;9.478;2023-06-14T04:04:12;97670.13;;;29.62;18.42
36284;BME280;56085;48.910;9.478;2023-06-14T04:06:37;97662.56;;;29.53;18.25
36284;BME280;56085;48.910;9.478;2023-06-14T04:09:02;97689.91;;;29.45;18.73
36284;BME280;56085;48.910;9.478;2023-06-14T04:11:30;97706.34;;;29.56;18.60
36284;BME280;56085;48.910;9.478;2023-06-14T04:13:56;97694.91;;;29.50;18.48
36284;BME280;56085;48.910;9.478;2023-06-14T04:16:22;97670.44;;;29.32;18.28
36284;BME280;56085;48.910;9.478;2023-06-14T04:18:47;97691.09;;;29.59;18.30
36284;BME280;56085;48.910;9.478;2023-06-14T04:21:13;97681.91;;;29.81;18.37
36284;BME280;56085;48.910;9.478;2023-06-14T04:23:38;97695.72;;;29.88;18.54
36284;BME280;56085;48.910;9.478;2023-06-14T04:26:03;97692.41;;;29.96;18.60
36284;BME280;56085;48.910;9.478;2023-06-14T04:28:29;97696.06;;;30.02;18.63
36284;BME280;56085;48.910;9.478;2023-06-14T04:30:55;97694.00;;;30.08;18.47
36284;BME280;56085;48.910;9.478;2023-06-14T04:33:20;97690.41;;;30.13;18.48
36284;BME280;56085;48.910;9.478;2023-06-14T04:35:46;97701.97;;;29.60;18.38
36284;BME280;56085;48.910;9.478;2023-06-14T04:38:14;97698.53;;;29.83;18.40
36284;BME280;56085;48.910;9.478;2023-06-14T04:40:41;97707.50;;;30.07;18.78
36284;BME280;56085;48.910;9.478;2023-06-14T04:43:11;97789.59;;;30.41;18.46
36284;BME280;56085;48.910;9.478;2023-06-14T04:45:42;97725.59;;;30.04;18.81
36284;BME280;56085;48.910;9.478;2023-06-14T04:48:10;97707.78;;;30.15;18.61
36284;BME280;56085;48.910;9.478;2023-06-14T04:50:35;97709.34;;;30.16;18.67
36284;BME280;56085;48.910;9.478;2023-06-14T04:53:01;97715.19;;;29.96;18.65
36284;BME280;56085;48.910;9.478;2023-06-14T04:55:26;97718.88;;;30.07;18.44
36284;BME280;56085;48.910;9.478;2023-06-14T04:57:52;97730.59;;;30.58;18.68
36284;BME280;56085;48.910;9.478;2023-06-14T05:00:19;97753.00;;;30.94;18.67
36284;BME280;56085;48.910;9.478;2023-06-14T05:02:45;97727.09;;;30.97;18.60
36284;BME280;56085;48.910;9.478;2023-06-14T05:05:12;97733.09;;;31.05;18.51
36284;BME280;56085;48.910;9.478;2023-06-14T05:07:37;97724.53;;;31.00;18.79
36284;BME280;56085;48.910;9.478;2023-06-14T05:10:02;97726.34;;;31.08;18.52
36284;BME280;56085;48.910;9.478;2023-06-14T05:12:28;97718.06;;;31.22;18.52
36284;BME280;56085;48.910;9.478;2023-06-14T05:14:54;97724.09;;;31.63;18.59
36284;BME280;56085;48.910;9.478;2023-06-14T05:17:19;97723.31;;;31.91;18.63
36284;BME280;56085;48.910;9.478;2023-06-14T05:19:45;97727.97;;;31.77;18.70
36284;BME280;56085;48.910;9.478;2023-06-14T05:22:11;97727.47;;;31.67;18.93
36284;BME280;56085;48.910;9.478;2023-06-14T05:24:36;97721.19;;;32.20;18.67
36284;BME280;56085;48.910;9.478;2023-06-14T05:27:01;97726.81;;;32.48;18.54
36284;BME280;56085;48.910;9.478;2023-06-14T05:29:27;97724.91;;;32.74;18.46
36284;BME280;56085;48.910;9.478;2023-06-14T05:31:52;97726.75;;;32.65;18.46
36284;BME280;56085;48.910;9.478;2023-06-14T05:34:17;97725.31;;;33.00;18.36
36284;BME280;56085;48.910;9.478;2023-06-14T05:36:43;97721.13;;;33.01;18.46
36284;BME280;56085;48.910;9.478;2023-06-14T05:39:08;97709.97;;;32.98;18.85
36284;BME280;56085;48.910;9.478;2023-06-14T05:41:34;97737.53;;;33.01;18.34
36284;BME280;56085;48.910;9.478;2023-06-14T05:43:59;97734.84;;;33.14;18.37
36284;BME280;56085;48.910;9.478;2023-06-14T05:46:25;97734.22;;;33.38;18.46
36284;BME280;56085;48.910;9.478;2023-06-14T05:48:52;97755.06;;;33.33;18.39
36284;BME280;56085;48.910;9.478;2023-06-14T05:51:17;97734.25;;;33.33;18.52
36284;BME280;56085;48.910;9.478;2023-06-14T05:53:48;97761.38;;;33.62;18.16
36284;BME280;56085;48.910;9.478;2023-06-14T05:56:15;97765.63;;;33.86;18.36
36284;BME280;56085;48.910;9.478;2023-06-14T05:58:41;97727.19;;;34.00;18.09
36284;BME280;56085;48.910;9.478;2023-06-14T06:01:06;97736.31;;;33.99;17.82
36284;BME280;56085;48.910;9.478;2023-06-14T06:03:32;97728.25;;;34.28;18.18
36284;BME280;56085;48.910;9.478;2023-06-14T06:05:58;97747.16;;;34.12;17.86
36284;BME280;56085;48.910;9.478;2023-06-14T06:08:23;97732.28;;;34.13;17.85
36284;BME280;56085;48.910;9.478;2023-06-14T06:10:49;97722.91;;;34.37;17.93
36284;BME280;56085;48.910;9.478;2023-06-14T06:13:14;97734.47;;;34.32;17.51
36284;BME280;56085;48.910;9.478;2023-06-14T06:15:40;97725.91;;;34.51;17.88
36284;BME280;56085;48.910;9.478;2023-06-14T06:18:05;97726.81;;;34.59;17.66
36284;BME280;56085;48.910;9.478;2023-06-14T06:20:31;97723.69;;;34.38;17.47
36284;BME280;56085;48.910;9.478;2023-06-14T06:22:58;97777.88;;;34.91;17.43
36284;BME280;56085;48.910;9.478;2023-06-14T06:25:23;97732.88;;;34.99;17.36
36284;BME280;56085;48.910;9.478;2023-06-14T06:27:51;97749.03;;;34.77;17.27
36284;BME280;56085;48.910;9.478;2023-06-14T06:30:16;97753.84;;;34.69;17.41
36284;BME280;56085;48.910;9.478;2023-06-14T06:32:41;97748.22;;;35.21;17.26
36284;BME280;56085;48.910;9.478;2023-06-14T06:35:07;97743.25;;;35.02;17.03
36284;BME280;56085;48.910;9.478;2023-06-14T06:37:34;97754.13;;;34.90;16.96
36284;BME280;56085;48.910;9.478;2023-06-14T06:39:59;97738.91;;;35.34;17.07
36284;BME280;56085;48.910;9.478;2023-06-14T06:42:25;97732.91;;;35.51;16.94
36284;BME280;56085;48.910;9.478;2023-06-14T06:44:50;97744.22;;;35.94;16.57
36284;BME280;56085;48.910;9.478;2023-06-14T06:47:15;97746.91;;;36.06;16.45
36284;BME280;56085;48.910;9.478;2023-06-14T06:49:40;97763.16;;;36.03;16.47
36284;BME280;56085;48.910;9.478;2023-06-14T06:52:06;97784.47;;;36.40;16.71
36284;BME280;56085;48.910;9.478;2023-06-14T06:54:33;97790.47;;;36.56;16.66
36284;BME280;56085;48.910;9.478;2023-06-14T06:56:58;97772.97;;;36.54;16.29
36284;BME280;56085;48.910;9.478;2023-06-14T06:59:24;97796.78;;;36.41;16.40
36284;BME280;56085;48.910;9.478;2023-06-14T07:01:50;97766.09;;;36.43;16.62
36284;BME280;56085;48.910;9.478;2023-06-14T07:04:15;97764.88;;;36.52;15.99
36284;BME280;56085;48.910;9.478;2023-06-14T07:06:42;97829.47;;;36.57;16.21
36284;BME280;56085;48.910;9.478;2023-06-14T07:09:07;97785.03;;;37.06;16.34
36284;BME280;56085;48.910;9.478;2023-06-14T07:11:38;97758.88;;;37.03;16.05
36284;BME280;56085;48.910;9.478;2023-06-14T07:14:03;97787.25;;;36.99;16.04
36284;BME280;56085;48.910;9.478;2023-06-14T07:16:28;97777.88;;;37.33;16.12
36284;BME280;56085;48.910;9.478;2023-06-14T07:18:54;97771.38;;;37.54;15.56
36284;BME280;56085;48.910;9.478;2023-06-14T07:21:19;97785.16;;;37.48;15.85
36284;BME280;56085;48.910;9.478;2023-06-14T07:23:44;97774.88;;;37.39;16.05
36284;BME280;56085;48.910;9.478;2023-06-14T07:26:10;97779.59;;;37.50;15.57
36284;BME280;56085;48.910;9.478;2023-06-14T07:28:35;97761.66;;;37.78;15.82
36284;BME280;56085;48.910;9.478;2023-06-14T07:31:01;97766.63;;;37.78;15.41
36284;BME280;56085;48.910;9.478;2023-06-14T07:33:26;97770.84;;;37.98;15.32
36284;BME280;56085;48.910;9.478;2023-06-14T07:35:51;97773.47;;;38.09;15.46
36284;BME280;56085;48.910;9.478;2023-06-14T07:38:18;97780.94;;;38.04;15.44
36284;BME280;56085;48.910;9.478;2023-06-14T07:40:43;97781.59;;;38.18;15.45
36284;BME280;56085;48.910;9.478;2023-06-14T07:43:08;97780.50;;;37.79;15.39
36284;BME280;56085;48.910;9.478;2023-06-14T07:45:34;97765.88;;;38.19;15.29
36284;BME280;56085;48.910;9.478;2023-06-14T07:47:59;97780.84;;;38.68;14.93
36284;BME280;56085;48.910;9.478;2023-06-14T07:50:24;97781.66;;;38.76;15.13
36284;BME280;56085;48.910;9.478;2023-06-14T07:52:50;97795.09;;;38.45;15.09
36284;BME280;56085;48.910;9.478;2023-06-14T07:55:15;97800.69;;;38.42;15.13
36284;BME280;56085;48.910;9.478;2023-06-14T07:57:41;97781.13;;;38.56;14.98
36284;BME280;56085;48.910;9.478;2023-06-14T08:00:08;97807.38;;;38.95;14.93
36284;BME280;56085;48.910;9.478;2023-06-14T08:02:35;97788.16;;;39.05;14.73
36284;BME280;56085;48.910;9.478;2023-06-14T08:05:00;97786.34;;;39.31;14.80
36284;BME280;56085;48.910;9.478;2023-06-14T08:07:26;97780.19;;;39.35;14.67
36284;BME280;56085;48.910;9.478;2023-06-14T08:09:51;97801.81;;;39.41;14.57
36284;BME280;56085;48.910;9.478;2023-06-14T08:12:16;97785.06;;;39.55;14.49
36284;BME280;56085;48.910;9.478;2023-06-14T08:14:42;97812.91;;;39.82;14.50
36284;BME280;56085;48.910;9.478;2023-06-14T08:17:08;97787.06;;;39.76;14.35
36284;BME280;56085;48.910;9.478;2023-06-14T08:19:33;97793.81;;;39.86;14.52
36284;BME280;56085;48.910;9.478;2023-06-14T08:21:58;97794.00;;;39.65;14.50
36284;BME280;56085;48.910;9.478;2023-06-14T08:24:25;97800.19;;;39.92;14.55
36284;BME280;56085;48.910;9.478;2023-06-14T08:26:52;97794.59;;;39.79;14.11
36284;BME280;56085;48.910;9.478;2023-06-14T08:29:17;97787.44;;;39.72;14.25
36284;BME280;56085;48.910;9.478;2023-06-14T08:31:43;97784.38;;;39.93;14.08
36284;BME280;56085;48.910;9.478;2023-06-14T08:34:08;97790.91;;;39.71;14.23
36284;BME280;56085;48.910;9.478;2023-06-14T08:36:35;97854.97;;;39.90;14.14
36284;BME280;56085;48.910;9.478;2023-06-14T08:39:00;97791.72;;;39.87;13.93
36284;BME280;56085;48.910;9.478;2023-06-14T08:41:28;97887.25;;;40.10;13.80
36284;BME280;56085;48.910;9.478;2023-06-14T08:43:54;97799.84;;;40.27;13.92
36284;BME280;56085;48.910;9.478;2023-06-14T08:46:20;97791.34;;;40.29;13.60
36284;BME280;56085;48.910;9.478;2023-06-14T08:48:49;97926.13;;;40.76;13.45
36284;BME280;56085;48.910;9.478;2023-06-14T08:51:18;97907.81;;;40.89;13.46
36284;BME280;56085;48.910;9.478;2023-06-14T08:53:43;97810.66;;;40.57;13.55
36284;BME280;56085;48.910;9.478;2023-06-14T08:56:09;97797.88;;;40.76;13.29
36284;BME280;56085;48.910;9.478;2023-06-14T08:58:47;97809.66;;;40.93;13.52
36284;BME280;56085;48.910;9.478;2023-06-14T09:01:13;97807.13;;;40.82;13.31
36284;BME280;56085;48.910;9.478;2023-06-14T09:03:40;97851.56;;;40.92;13.28
36284;BME280;56085;48.910;9.478;2023-06-14T09:06:07;97801.34;;;40.90;13.26
36284;BME280;56085;48.910;9.478;2023-06-14T09:08:34;97808.28;;;40.87;13.23
36284;BME280;56085;48.910;9.478;2023-06-14T09:11:01;97851.19;;;40.73;13.37
36284;BME280;56085;48.910;9.478;2023-06-14T09:13:27;97812.41;;;40.53;12.99
36284;BME280;56085;48.910;9.478;2023-06-14T09:15:52;97797.16;;;40.37;13.21
36284;BME280;56085;48.910;9.478;2023-06-14T09:18:18;97819.72;;;40.23;12.78
36284;BME280;56085;48.910;9.478;2023-06-14T09:20:45;97805.00;;;40.82;13.02
36284;BME280;56085;48.910;9.478;2023-06-14T09:23:12;97815.66;;;40.64;13.15
36284;BME280;56085;48.910;9.478;2023-06-14T09:25:42;97933.63;;;41.18;12.64
36284;BME280;56085;48.910;9.478;2023-06-14T09:28:09;97825.72;;;41.76;12.91
36284;BME280;56085;48.910;9.478;2023-06-14T09:30:36;97862.44;;;41.81;13.03
36284;BME280;56085;48.910;9.478;2023-06-14T09:33:02;97797.34;;;41.66;12.42
36284;BME280;56085;48.910;9.478;2023-06-14T09:35:27;97808.53;;;41.37;12.56
36284;BME280;56085;48.910;9.478;2023-06-14T09:37:56;97801.38;;;41.71;12.41
36284;BME280;56085;48.910;9.478;2023-06-14T09:40:21;97811.00;;;42.07;12.45
36284;BME280;56085;48.910;9.478;2023-06-14T09:42:47;97822.91;;;41.93;12.16
36284;BME280;56085;48.910;9.478;2023-06-14T09:45:13;97813.84;;;42.14;12.08
36284;BME280;56085;48.910;9.478;2023-06-14T09:47:39;97810.91;;;42.22;11.68
36284;BME280;56085;48.910;9.478;2023-06-14T09:50:05;97842.59;;;41.62;11.97
36284;BME280;56085;48.910;9.478;2023-06-14T09:52:31;97817.31;;;42.20;11.95
36284;BME280;56085;48.910;9.478;2023-06-14T09:54:59;97901.00;;;42.40;11.68
36284;BME280;56085;48.910;9.478;2023-06-14T09:57:25;97821.34;;;42.25;11.70
36284;BME280;56085;48.910;9.478;2023-06-14T09:59:57;97950.56;;;42.42;11.79
36284;BME280;56085;48.910;9.478;2023-06-14T10:02:28;97861.22;;;42.50;11.70
36284;BME280;56085;48.910;9.478;2023-06-14T10:04:58;97931.41;;;42.38;11.57
36284;BME280;56085;48.910;9.478;2023-06-14T10:07:32;97912.03;;;42.41;11.45
36284;BME280;56085;48.910;9.478;2023-06-14T10:10:00;97823.56;;;42.34;11.46
36284;BME280;56085;48.910;9.478;2023-06-14T10:12:26;97860.38;;;41.17;11.60
36284;BME280;56085;48.910;9.478;2023-06-14T10:14:52;97827.16;;;42.25;11.29
36284;BME280;56085;48.910;9.478;2023-06-14T10:17:27;97943.81;;;41.58;11.09
36284;BME280;56085;48.910;9.478;2023-06-14T10:20:26;97854.34;;;41.72;10.97
36284;BME280;56085;48.910;9.478;2023-06-14T10:23:00;97934.84;;;42.12;11.02
36284;BME280;56085;48.910;9.478;2023-06-14T10:25:31;97922.16;;;42.83;11.05
36284;BME280;56085;48.910;9.478;2023-06-14T10:30:37;97833.34;;;42.47;10.99
36284;BME280;56085;48.910;9.478;2023-06-14T10:33:06;97941.19;;;42.51;10.71
36284;BME280;56085;48.910;9.478;2023-06-14T10:35:33;97840.59;;;42.38;10.89
36284;BME280;56085;48.910;9.478;2023-06-14T10:38:11;97899.22;;;42.19;10.65
36284;BME280;56085;48.910;9.478;2023-06-14T10:40:38;97877.91;;;41.91;10.78
36284;BME280;56085;48.910;9.478;2023-06-14T10:43:21;97908.88;;;43.32;10.66
36284;BME280;56085;48.910;9.478;2023-06-14T10:46:17;97900.19;;;43.95;10.55
36284;BME280;56085;48.910;9.478;2023-06-14T10:48:44;97812.53;;;43.46;10.44
36284;BME280;56085;48.910;9.478;2023-06-14T10:51:19;97906.38;;;44.08;10.19
36284;BME280;56085;48.910;9.478;2023-06-14T10:53:51;97906.94;;;43.97;10.28
36284;BME280;56085;48.910;9.478;2023-06-14T10:56:29;97897.81;;;44.10;9.91
36284;BME280;56085;48.910;9.478;2023-06-14T10:58:57;97823.88;;;43.96;10.09
36284;BME280;56085;48.910;9.478;2023-06-14T11:04:11;97785.31;;;44.15;9.93
36284;BME280;56085;48.910;9.478;2023-06-14T11:06:45;97923.75;;;44.90;9.83
36284;BME280;56085;48.910;9.478;2023-06-14T11:09:38;97908.78;;;45.23;9.40
36284;BME280;56085;48.910;9.478;2023-06-14T11:12:10;97808.34;;;44.97;9.75
36284;BME280;56085;48.910;9.478;2023-06-14T11:14:38;97783.78;;;45.00;9.67
36284;BME280;56085;48.910;9.478;2023-06-14T11:17:03;97795.44;;;45.29;9.46
36284;BME280;56085;48.910;9.478;2023-06-14T11:19:29;97786.50;;;45.67;9.47
36284;BME280;56085;48.910;9.478;2023-06-14T11:21:54;97796.56;;;45.85;8.97
36284;BME280;56085;48.910;9.478;2023-06-14T11:24:19;97778.59;;;45.08;8.98
36284;BME280;56085;48.910;9.478;2023-06-14T11:26:47;97854.13;;;46.04;9.11
36284;BME280;56085;48.910;9.478;2023-06-14T11:29:15;97872.09;;;46.51;8.76
36284;BME280;56085;48.910;9.478;2023-06-14T11:31:45;97909.00;;;46.88;8.80
36284;BME280;56085;48.910;9.478;2023-06-14T11:34:11;97842.34;;;46.65;8.70
36284;BME280;56085;48.910;9.478;2023-06-14T11:36:38;97821.19;;;46.76;8.71
36284;BME280;56085;48.910;9.478;2023-06-14T11:39:05;97829.06;;;46.42;8.88
36284;BME280;56085;48.910;9.478;2023-06-14T11:41:37;97884.56;;;46.21;8.87
36284;BME280;56085;48.910;9.478;2023-06-14T11:44:02;97788.28;;;46.23;8.47
36284;BME280;56085;48.910;9.478;2023-06-14T11:46:28;97763.75;;;46.59;8.54
36284;BME280;56085;48.910;9.478;2023-06-14T11:48:53;97755.59;;;46.05;8.60
36284;BME280;56085;48.910;9.478;2023-06-14T11:51:19;97785.38;;;46.88;8.38
36284;BME280;56085;48.910;9.478;2023-06-14T11:53:46;97788.53;;;47.01;8.19
36284;BME280;56085;48.910;9.478;2023-06-14T11:56:11;97766.44;;;46.89;8.25
36284;BME280;56085;48.910;9.478;2023-06-14T11:58:37;97779.94;;;46.29;8.09
36284;BME280;56085;48.910;9.478;2023-06-14T12:01:05;97900.19;;;47.41;8.15
36284;BME280;56085;48.910;9.478;2023-06-14T12:03:30;97752.47;;;47.66;7.96
36284;BME280;56085;48.910;9.478;2023-06-14T12:06:05;97917.13;;;48.33;7.71
36284;BME280;56085;48.910;9.478;2023-06-14T12:08:35;97797.59;;;48.20;7.61
36284;BME280;56085;48.910;9.478;2023-06-14T12:11:04;97761.78;;;47.98;7.93
36284;BME280;56085;48.910;9.478;2023-06-14T12:13:29;97768.19;;;48.18;7.66
36284;BME280;56085;48.910;9.478;2023-06-14T12:15:56;97799.38;;;48.13;7.67
36284;BME280;56085;48.910;9.478;2023-06-14T12:18:31;97909.50;;;48.87;7.62
36284;BME280;56085;48.910;9.478;2023-06-14T12:20:58;97822.97;;;48.15;7.44
36284;BME280;56085;48.910;9.478;2023-06-14T12:23:47;97888.22;;;48.51;7.45
36284;BME280;56085;48.910;9.478;2023-06-14T12:26:17;97792.88;;;48.15;7.46
36284;BME280;56085;48.910;9.478;2023-06-14T12:28:44;97830.00;;;48.46;7.64
36284;BME280;56085;48.910;9.478;2023-06-14T12:31:15;97910.34;;;49.14;7.54
36284;BME280;56085;48.910;9.478;2023-06-14T12:33:41;97794.00;;;48.45;7.42
36284;BME280;56085;48.910;9.478;2023-06-14T12:36:08;97796.03;;;48.66;7.02
36284;BME280;56085;48.910;9.478;2023-06-14T12:38:34;97753.41;;;49.15;7.15
36284;BME280;56085;48.910;9.478;2023-06-14T12:40:59;97755.81;;;48.81;7.61
36284;BME280;56085;48.910;9.478;2023-06-14T12:43:25;97775.88;;;47.54;7.36
36284;BME280;56085;48.910;9.478;2023-06-14T12:45:50;97759.00;;;48.35;7.35
36284;BME280;56085;48.910;9.478;2023-06-14T12:48:15;97752.00;;;48.78;7.36
36284;BME280;56085;48.910;9.478;2023-06-14T12:50:41;97716.78;;;48.52;7.17
36284;BME280;56085;48.910;9.478;2023-06-14T12:53:07;97740.03;;;47.20;7.21
36284;BME280;56085;48.910;9.478;2023-06-14T12:55:32;97775.94;;;47.89;7.11
36284;BME280;56085;48.910;9.478;2023-06-14T12:57:57;97766.75;;;48.31;7.10
36284;BME280;56085;48.910;9.478;2023-06-14T13:00:23;97765.19;;;49.03;7.19
36284;BME280;56085;48.910;9.478;2023-06-14T13:02:50;97759.19;;;49.01;6.67
36284;BME280;56085;48.910;9.478;2023-06-14T13:05:17;97764.44;;;48.41;6.77
36284;BME280;56085;48.910;9.478;2023-06-14T13:07:42;97759.75;;;48.36;6.85